sensor_id;sensor_type;location;lat;lon;timestamp;temperature;humidity
23435;DHT22;11890;45.380;11.028;2022-08-01T00:00:54;27.10;82.40
23435;DHT22;11890;45.380;11.028;2022-08-01T00:03:22;27.10;82.60
23435;DHT22;11890;45.380;11.028;2022-08-01T00:05:49;27.10;82.80
23435;DHT22;11890;45.380;11.028;2022-08-01T00:08:17;27.10;82.60
23435;DHT22;11890;45.380;11.028;2022-08-01T00:10:44;27.00;82.10
23435;DHT22;11890;45.380;11.028;2022-08-01T00:13:11;27.00;82.60
23435;DHT22;11890;45.380;11.028;2022-08-01T00:15:39;27.00;83.00
23435;DHT22;11890;45.380;11.028;2022-08-01T00:18:06;27.00;82.40
23435;DHT22;11890;45.380;11.028;2022-08-01T00:20:34;26.90;81.70
23435;DHT22;11890;45.380;11.028;2022-08-01T00:23:04;26.90;83.40
23435;DHT22;11890;45.380;11.028;2022-08-01T00:25:32;26.90;82.70
23435;DHT22;11890;45.380;11.028;2022-08-01T00:28:01;26.90;81.80
23435;DHT22;11890;45.380;11.028;2022-08-01T00:30:30;26.90;81.50
23435;DHT22;11890;45.380;11.028;2022-08-01T00:32:58;26.90;82.60
23435;DHT22;11890;45.380;11.028;2022-08-01T00:35:25;26.90;82.30
23435;DHT22;11890;45.380;11.028;2022-08-01T00:37:53;26.90;82.30
23435;DHT22;11890;45.380;11.028;2022-08-01T00:40:21;26.90;81.80
23435;DHT22;11890;45.380;11.028;2022-08-01T00:42:48;26.90;82.10
23435;DHT22;11890;45.380;11.028;2022-08-01T00:45:16;26.80;81.30
23435;DHT22;11890;45.380;11.028;2022-08-01T00:47:43;26.90;82.30
23435;DHT22;11890;45.380;11.028;2022-08-01T00:50:11;26.90;82.70
23435;DHT22;11890;45.380;11.028;2022-08-01T00:52:39;26.90;81.30
23435;DHT22;11890;45.380;11.028;2022-08-01T00:55:08;26.90;81.10
23435;DHT22;11890;45.380;11.028;2022-08-01T00:57:41;26.90;80.90
23435;DHT22;11890;45.380;11.028;2022-08-01T01:00:29;26.90;81.50
23435;DHT22;11890;45.380;11.028;2022-08-01T01:02:59;26.90;81.70
23435;DHT22;11890;45.380;11.028;2022-08-01T01:05:27;26.90;81.20
23435;DHT22;11890;45.380;11.028;2022-08-01T01:08:04;26.80;81.10
23435;DHT22;11890;45.380;11.028;2022-08-01T01:10:45;26.80;81.40
23435;DHT22;11890;45.380;11.028;2022-08-01T01:13:46;26.80;81.80
23435;DHT22;11890;45.380;11.028;2022-08-01T01:16:19;26.90;82.20
23435;DHT22;11890;45.380;11.028;2022-08-01T01:29:13;26.80;82.60
23435;DHT22;11890;45.380;11.028;2022-08-01T01:31:44;26.80;82.50
23435;DHT22;11890;45.380;11.028;2022-08-01T01:34:14;26.80;82.30
23435;DHT22;11890;45.380;11.028;2022-08-01T01:36:44;26.70;82.40
23435;DHT22;11890;45.380;11.028;2022-08-01T01:39:14;26.60;82.50
23435;DHT22;11890;45.380;11.028;2022-08-01T01:41:43;26.60;83.00
23435;DHT22;11890;45.380;11.028;2022-08-01T01:44:11;26.50;83.00
23435;DHT22;11890;45.380;11.028;2022-08-01T01:46:41;26.40;82.90
23435;DHT22;11890;45.380;11.028;2022-08-01T01:49:10;26.40;83.60
23435;DHT22;11890;45.380;11.028;2022-08-01T01:51:39;26.30;82.40
23435;DHT22;11890;45.380;11.028;2022-08-01T01:54:33;26.30;84.00
23435;DHT22;11890;45.380;11.028;2022-08-01T01:57:02;26.20;83.50
23435;DHT22;11890;45.380;11.028;2022-08-01T01:59:34;26.10;84.90
23435;DHT22;11890;45.380;11.028;2022-08-01T02:02:04;26.10;86.30
23435;DHT22;11890;45.380;11.028;2022-08-01T02:04:37;26.10;86.40
23435;DHT22;11890;45.380;11.028;2022-08-01T02:07:08;26.00;86.60
23435;DHT22;11890;45.380;11.028;2022-08-01T02:09:37;26.00;86.60
23435;DHT22;11890;45.380;11.028;2022-08-01T02:12:07;25.90;85.70
23435;DHT22;11890;45.380;11.028;2022-08-01T02:14:38;26.00;86.30
23435;DHT22;11890;45.380;11.028;2022-08-01T02:17:12;26.00;86.70
23435;DHT22;11890;45.380;11.028;2022-08-01T02:19:42;26.00;86.50
23435;DHT22;11890;45.380;11.028;2022-08-01T02:22:31;26.10;86.20
23435;DHT22;11890;45.380;11.028;2022-08-01T02:25:02;26.00;86.20
23435;DHT22;11890;45.380;11.028;2022-08-01T02:27:36;26.00;84.80
23435;DHT22;11890;45.380;11.028;2022-08-01T02:30:07;26.00;85.10
23435;DHT22;11890;45.380;11.028;2022-08-01T02:32:43;26.00;87.70
23435;DHT22;11890;45.380;11.028;2022-08-01T02:35:13;26.00;87.60
23435;DHT22;11890;45.380;11.028;2022-08-01T02:37:45;25.90;85.90
23435;DHT22;11890;45.380;11.028;2022-08-01T02:40:15;25.90;86.60
23435;DHT22;11890;45.380;11.028;2022-08-01T02:42:47;25.90;87.60
23435;DHT22;11890;45.380;11.028;2022-08-01T02:45:22;25.90;87.80
23435;DHT22;11890;45.380;11.028;2022-08-01T02:47:55;25.90;86.50
23435;DHT22;11890;45.380;11.028;2022-08-01T02:50:26;25.90;88.00
23435;DHT22;11890;45.380;11.028;2022-08-01T02:52:56;25.90;87.60
23435;DHT22;11890;45.380;11.028;2022-08-01T02:55:26;25.90;87.50
23435;DHT22;11890;45.380;11.028;2022-08-01T02:57:55;25.90;87.60
23435;DHT22;11890;45.380;11.028;2022-08-01T03:00:28;25.90;87.10
23435;DHT22;11890;45.380;11.028;2022-08-01T03:02:57;25.90;86.40
23435;DHT22;11890;45.380;11.028;2022-08-01T03:05:27;25.80;87.30
23435;DHT22;11890;45.380;11.028;2022-08-01T03:07:56;25.80;89.10
23435;DHT22;11890;45.380;11.028;2022-08-01T03:10:31;25.70;89.10
23435;DHT22;11890;45.380;11.028;2022-08-01T03:13:00;25.70;89.40
23435;DHT22;11890;45.380;11.028;2022-08-01T03:15:32;25.50;89.30
23435;DHT22;11890;45.380;11.028;2022-08-01T03:18:01;25.40;88.90
23435;DHT22;11890;45.380;11.028;2022-08-01T03:20:30;25.50;89.70
23435;DHT22;11890;45.380;11.028;2022-08-01T03:23:05;25.50;89.50
23435;DHT22;11890;45.380;11.028;2022-08-01T03:25:35;25.50;88.40
23435;DHT22;11890;45.380;11.028;2022-08-01T03:28:04;25.50;88.40
23435;DHT22;11890;45.380;11.028;2022-08-01T03:30:33;25.50;89.60
23435;DHT22;11890;45.380;11.028;2022-08-01T03:33:03;25.50;89.40
23435;DHT22;11890;45.380;11.028;2022-08-01T03:35:46;25.50;88.90
23435;DHT22;11890;45.380;11.028;2022-08-01T03:38:17;25.40;88.50
23435;DHT22;11890;45.380;11.028;2022-08-01T03:40:54;25.40;87.60
23435;DHT22;11890;45.380;11.028;2022-08-01T03:43:32;25.40;87.30
23435;DHT22;11890;45.380;11.028;2022-08-01T03:46:07;25.40;87.60
23435;DHT22;11890;45.380;11.028;2022-08-01T03:48:43;25.40;87.70
23435;DHT22;11890;45.380;11.028;2022-08-01T03:51:14;25.40;86.50
23435;DHT22;11890;45.380;11.028;2022-08-01T03:53:44;25.40;87.00
23435;DHT22;11890;45.380;11.028;2022-08-01T03:56:13;25.40;88.60
23435;DHT22;11890;45.380;11.028;2022-08-01T03:58:45;25.40;89.90
23435;DHT22;11890;45.380;11.028;2022-08-01T04:01:17;25.40;90.00
23435;DHT22;11890;45.380;11.028;2022-08-01T04:03:45;25.40;90.00
23435;DHT22;11890;45.380;11.028;2022-08-01T04:06:13;25.30;90.40
23435;DHT22;11890;45.380;11.028;2022-08-01T04:08:41;25.20;90.80
23435;DHT22;11890;45.380;11.028;2022-08-01T04:11:09;25.20;91.20
23435;DHT22;11890;45.380;11.028;2022-08-01T04:13:37;25.20;90.80
23435;DHT22;11890;45.380;11.028;2022-08-01T04:16:04;25.20;91.30
23435;DHT22;11890;45.380;11.028;2022-08-01T04:18:32;25.20;90.90
23435;DHT22;11890;45.380;11.028;2022-08-01T04:20:59;25.20;90.60
23435;DHT22;11890;45.380;11.028;2022-08-01T04:23:27;25.20;91.20
23435;DHT22;11890;45.380;11.028;2022-08-01T04:25:59;25.20;91.00
23435;DHT22;11890;45.380;11.028;2022-08-01T04:28:30;25.30;91.00
23435;DHT22;11890;45.380;11.028;2022-08-01T04:30:59;25.20;90.70
23435;DHT22;11890;45.380;11.028;2022-08-01T04:33:30;25.30;90.70
23435;DHT22;11890;45.380;11.028;2022-08-01T04:35:59;25.20;90.40
23435;DHT22;11890;45.380;11.028;2022-08-01T04:38:34;25.20;91.60
23435;DHT22;11890;45.380;11.028;2022-08-01T04:41:06;25.30;92.90
23435;DHT22;11890;45.380;11.028;2022-08-01T04:43:37;25.20;93.10
23435;DHT22;11890;45.380;11.028;2022-08-01T04:46:06;25.30;93.10
23435;DHT22;11890;45.380;11.028;2022-08-01T04:48:38;25.30;93.10
23435;DHT22;11890;45.380;11.028;2022-08-01T04:51:12;25.40;93.20
23435;DHT22;11890;45.380;11.028;2022-08-01T04:53:41;25.40;92.90
23435;DHT22;11890;45.380;11.028;2022-08-01T04:56:08;25.40;93.00
23435;DHT22;11890;45.380;11.028;2022-08-01T04:58:36;25.40;92.80
23435;DHT22;11890;45.380;11.028;2022-08-01T05:01:03;25.50;92.70
23435;DHT22;11890;45.380;11.028;2022-08-01T05:03:31;25.50;92.60
23435;DHT22;11890;45.380;11.028;2022-08-01T05:06:04;25.60;92.70
23435;DHT22;11890;45.380;11.028;2022-08-01T05:08:32;25.60;92.20
23435;DHT22;11890;45.380;11.028;2022-08-01T05:10:59;25.70;92.40
23435;DHT22;11890;45.380;11.028;2022-08-01T05:13:28;25.70;92.50
23435;DHT22;11890;45.380;11.028;2022-08-01T05:15:55;25.80;92.40
23435;DHT22;11890;45.380;11.028;2022-08-01T05:18:23;25.80;92.60
23435;DHT22;11890;45.380;11.028;2022-08-01T05:20:55;25.80;92.80
23435;DHT22;11890;45.380;11.028;2022-08-01T05:23:22;25.90;92.70
23435;DHT22;11890;45.380;11.028;2022-08-01T05:26:10;25.90;92.30
23435;DHT22;11890;45.380;11.028;2022-08-01T05:28:41;26.10;92.10
23435;DHT22;11890;45.380;11.028;2022-08-01T05:31:09;26.10;92.20
23435;DHT22;11890;45.380;11.028;2022-08-01T05:33:37;26.10;92.20
23435;DHT22;11890;45.380;11.028;2022-08-01T05:36:04;26.10;92.70
23435;DHT22;11890;45.380;11.028;2022-08-01T05:38:32;26.20;92.60
23435;DHT22;11890;45.380;11.028;2022-08-01T05:40:59;26.30;92.40
23435;DHT22;11890;45.380;11.028;2022-08-01T05:43:27;26.40;92.20
23435;DHT22;11890;45.380;11.028;2022-08-01T05:45:55;26.40;93.20
23435;DHT22;11890;45.380;11.028;2022-08-01T05:48:22;26.30;91.70
23435;DHT22;11890;45.380;11.028;2022-08-01T05:50:51;26.40;91.70
23435;DHT22;11890;45.380;11.028;2022-08-01T05:53:24;26.40;91.30
23435;DHT22;11890;45.380;11.028;2022-08-01T05:55:52;26.40;91.40
23435;DHT22;11890;45.380;11.028;2022-08-01T05:58:19;26.40;91.50
23435;DHT22;11890;45.380;11.028;2022-08-01T06:00:47;26.40;92.70
23435;DHT22;11890;45.380;11.028;2022-08-01T06:03:14;26.40;95.00
23435;DHT22;11890;45.380;11.028;2022-08-01T06:05:42;26.40;95.30
23435;DHT22;11890;45.380;11.028;2022-08-01T06:08:09;26.50;93.70
23435;DHT22;11890;45.380;11.028;2022-08-01T06:10:37;26.50;91.70
23435;DHT22;11890;45.380;11.028;2022-08-01T06:13:04;26.50;92.50
23435;DHT22;11890;45.380;11.028;2022-08-01T06:15:32;26.50;94.10
23435;DHT22;11890;45.380;11.028;2022-08-01T06:18:00;26.50;93.70
23435;DHT22;11890;45.380;11.028;2022-08-01T06:20:27;26.60;94.80
23435;DHT22;11890;45.380;11.028;2022-08-01T06:22:55;26.50;92.40
23435;DHT22;11890;45.380;11.028;2022-08-01T06:25:25;26.50;92.60
23435;DHT22;11890;45.380;11.028;2022-08-01T06:27:53;26.60;91.70
23435;DHT22;11890;45.380;11.028;2022-08-01T06:30:20;26.60;91.90
23435;DHT22;11890;45.380;11.028;2022-08-01T06:32:48;26.60;91.80
23435;DHT22;11890;45.380;11.028;2022-08-01T06:35:15;26.70;90.90
23435;DHT22;11890;45.380;11.028;2022-08-01T06:37:43;26.70;91.50
23435;DHT22;11890;45.380;11.028;2022-08-01T06:40:12;26.80;92.80
23435;DHT22;11890;45.380;11.028;2022-08-01T06:42:44;26.90;92.70
23435;DHT22;11890;45.380;11.028;2022-08-01T06:45:13;27.00;91.00
23435;DHT22;11890;45.380;11.028;2022-08-01T06:47:43;27.10;91.90
23435;DHT22;11890;45.380;11.028;2022-08-01T06:50:17;27.20;89.30
23435;DHT22;11890;45.380;11.028;2022-08-01T06:52:45;27.20;91.40
23435;DHT22;11890;45.380;11.028;2022-08-01T06:55:12;27.30;91.80
23435;DHT22;11890;45.380;11.028;2022-08-01T06:57:50;27.30;91.90
23435;DHT22;11890;45.380;11.028;2022-08-01T07:00:21;27.40;90.50
23435;DHT22;11890;45.380;11.028;2022-08-01T07:02:51;27.40;88.90
23435;DHT22;11890;45.380;11.028;2022-08-01T07:05:19;27.60;85.70
23435;DHT22;11890;45.380;11.028;2022-08-01T07:07:46;27.60;87.50
23435;DHT22;11890;45.380;11.028;2022-08-01T07:10:14;27.70;87.80
23435;DHT22;11890;45.380;11.028;2022-08-01T07:12:41;27.70;84.70
23435;DHT22;11890;45.380;11.028;2022-08-01T07:15:10;27.80;85.80
23435;DHT22;11890;45.380;11.028;2022-08-01T07:17:39;27.80;83.90
23435;DHT22;11890;45.380;11.028;2022-08-01T07:20:09;27.70;83.90
23435;DHT22;11890;45.380;11.028;2022-08-01T07:22:37;27.80;82.50
23435;DHT22;11890;45.380;11.028;2022-08-01T07:25:05;27.90;82.30
23435;DHT22;11890;45.380;11.028;2022-08-01T07:27:33;28.00;85.20
23435;DHT22;11890;45.380;11.028;2022-08-01T07:30:01;28.10;85.60
23435;DHT22;11890;45.380;11.028;2022-08-01T07:32:29;28.20;84.90
23435;DHT22;11890;45.380;11.028;2022-08-01T07:34:56;28.20;86.40
23435;DHT22;11890;45.380;11.028;2022-08-01T07:37:26;28.30;85.70
23435;DHT22;11890;45.380;11.028;2022-08-01T07:40:14;28.30;87.60
23435;DHT22;11890;45.380;11.028;2022-08-01T07:42:41;28.50;88.60
23435;DHT22;11890;45.380;11.028;2022-08-01T07:45:11;28.50;86.40
23435;DHT22;11890;45.380;11.028;2022-08-01T07:47:39;28.60;84.10
23435;DHT22;11890;45.380;11.028;2022-08-01T07:50:07;28.70;85.60
23435;DHT22;11890;45.380;11.028;2022-08-01T07:52:34;28.80;83.80
23435;DHT22;11890;45.380;11.028;2022-08-01T07:55:02;28.90;86.40
23435;DHT22;11890;45.380;11.028;2022-08-01T07:57:29;29.00;86.40
23435;DHT22;11890;45.380;11.028;2022-08-01T07:59:57;29.10;84.40
23435;DHT22;11890;45.380;11.028;2022-08-01T08:02:24;29.20;87.20
23435;DHT22;11890;45.380;11.028;2022-08-01T08:04:52;29.20;84.70
23435;DHT22;11890;45.380;11.028;2022-08-01T08:07:19;29.20;84.60
23435;DHT22;11890;45.380;11.028;2022-08-01T08:09:47;29.30;85.30
23435;DHT22;11890;45.380;11.028;2022-08-01T08:12:17;29.40;87.40
23435;DHT22;11890;45.380;11.028;2022-08-01T08:14:55;29.50;85.40
23435;DHT22;11890;45.380;11.028;2022-08-01T08:17:24;29.60;80.40
23435;DHT22;11890;45.380;11.028;2022-08-01T08:19:52;29.60;82.50
23435;DHT22;11890;45.380;11.028;2022-08-01T08:22:19;29.70;81.80
23435;DHT22;11890;45.380;11.028;2022-08-01T08:24:47;29.80;81.00
23435;DHT22;11890;45.380;11.028;2022-08-01T08:27:14;29.80;85.10
23435;DHT22;11890;45.380;11.028;2022-08-01T08:29:42;29.90;86.00
23435;DHT22;11890;45.380;11.028;2022-08-01T08:32:11;29.90;84.50
23435;DHT22;11890;45.380;11.028;2022-08-01T08:34:38;30.00;85.60
23435;DHT22;11890;45.380;11.028;2022-08-01T08:37:05;30.00;85.80
23435;DHT22;11890;45.380;11.028;2022-08-01T08:39:35;30.10;85.90
23435;DHT22;11890;45.380;11.028;2022-08-01T08:42:10;30.10;84.70
23435;DHT22;11890;45.380;11.028;2022-08-01T08:44:40;30.20;85.80
23435;DHT22;11890;45.380;11.028;2022-08-01T08:47:13;30.30;86.70
23435;DHT22;11890;45.380;11.028;2022-08-01T08:49:47;30.30;81.20
23435;DHT22;11890;45.380;11.028;2022-08-01T08:52:18;30.40;80.90
23435;DHT22;11890;45.380;11.028;2022-08-01T08:54:48;30.50;81.50
23435;DHT22;11890;45.380;11.028;2022-08-01T08:57:16;30.50;78.40
23435;DHT22;11890;45.380;11.028;2022-08-01T08:59:45;30.50;78.30
23435;DHT22;11890;45.380;11.028;2022-08-01T09:02:13;30.60;78.20
23435;DHT22;11890;45.380;11.028;2022-08-01T09:04:41;30.60;77.00
23435;DHT22;11890;45.380;11.028;2022-08-01T09:07:08;30.70;77.10
23435;DHT22;11890;45.380;11.028;2022-08-01T09:09:38;30.90;78.60
23435;DHT22;11890;45.380;11.028;2022-08-01T09:12:08;31.00;78.40
23435;DHT22;11890;45.380;11.028;2022-08-01T09:14:45;31.00;77.10
23435;DHT22;11890;45.380;11.028;2022-08-01T09:17:12;31.10;77.40
23435;DHT22;11890;45.380;11.028;2022-08-01T09:19:45;31.10;76.40
23435;DHT22;11890;45.380;11.028;2022-08-01T09:22:18;31.20;76.90
23435;DHT22;11890;45.380;11.028;2022-08-01T09:25:07;31.20;77.90
23435;DHT22;11890;45.380;11.028;2022-08-01T09:27:35;31.30;79.70
23435;DHT22;11890;45.380;11.028;2022-08-01T09:30:17;31.40;80.80
23435;DHT22;11890;45.380;11.028;2022-08-01T09:33:02;31.40;79.30
23435;DHT22;11890;45.380;11.028;2022-08-01T09:35:55;31.40;79.70
23435;DHT22;11890;45.380;11.028;2022-08-01T09:38:24;31.50;81.60
23435;DHT22;11890;45.380;11.028;2022-08-01T09:40:59;31.50;80.00
23435;DHT22;11890;45.380;11.028;2022-08-01T09:43:31;31.60;81.70
23435;DHT22;11890;45.380;11.028;2022-08-01T09:46:03;31.50;80.30
23435;DHT22;11890;45.380;11.028;2022-08-01T09:48:31;31.60;80.90
23435;DHT22;11890;45.380;11.028;2022-08-01T09:50:59;31.70;80.50
23435;DHT22;11890;45.380;11.028;2022-08-01T09:53:47;31.70;78.30
23435;DHT22;11890;45.380;11.028;2022-08-01T09:56:20;31.80;77.70
23435;DHT22;11890;45.380;11.028;2022-08-01T10:01:26;31.90;78.80
23435;DHT22;11890;45.380;11.028;2022-08-01T10:04:09;32.00;78.80
23435;DHT22;11890;45.380;11.028;2022-08-01T10:06:38;32.10;78.40
23435;DHT22;11890;45.380;11.028;2022-08-01T10:09:08;32.20;78.50
23435;DHT22;11890;45.380;11.028;2022-08-01T10:11:37;32.30;75.70
23435;DHT22;11890;45.380;11.028;2022-08-01T10:14:07;32.40;78.30
23435;DHT22;11890;45.380;11.028;2022-08-01T10:16:36;32.40;76.50
23435;DHT22;11890;45.380;11.028;2022-08-01T10:19:06;32.40;77.70
23435;DHT22;11890;45.380;11.028;2022-08-01T10:21:42;32.50;76.90
23435;DHT22;11890;45.380;11.028;2022-08-01T10:24:26;32.60;75.60
23435;DHT22;11890;45.380;11.028;2022-08-01T10:26:59;32.70;77.40
23435;DHT22;11890;45.380;11.028;2022-08-01T10:29:56;32.60;74.50
23435;DHT22;11890;45.380;11.028;2022-08-01T10:32:36;32.60;75.20
23435;DHT22;11890;45.380;11.028;2022-08-01T10:35:06;32.70;75.70
23435;DHT22;11890;45.380;11.028;2022-08-01T10:37:42;32.80;75.40
23435;DHT22;11890;45.380;11.028;2022-08-01T10:40:19;33.00;73.00
23435;DHT22;11890;45.380;11.028;2022-08-01T10:43:03;33.00;74.40
23435;DHT22;11890;45.380;11.028;2022-08-01T10:45:31;33.00;74.90
23435;DHT22;11890;45.380;11.028;2022-08-01T10:48:04;33.10;73.60
23435;DHT22;11890;45.380;11.028;2022-08-01T10:50:47;33.10;73.40
23435;DHT22;11890;45.380;11.028;2022-08-01T10:53:19;33.20;72.60
23435;DHT22;11890;45.380;11.028;2022-08-01T10:58:33;33.20;72.90
23435;DHT22;11890;45.380;11.028;2022-08-01T11:01:20;33.20;75.70
23435;DHT22;11890;45.380;11.028;2022-08-01T11:09:04;33.40;71.30
23435;DHT22;11890;45.380;11.028;2022-08-01T11:14:24;33.50;71.10
23435;DHT22;11890;45.380;11.028;2022-08-01T11:28:26;33.80;70.10
23435;DHT22;11890;45.380;11.028;2022-08-01T11:41:12;33.90;69.70
23435;DHT22;11890;45.380;11.028;2022-08-01T11:44:02;34.00;69.50
23435;DHT22;11890;45.380;11.028;2022-08-01T11:46:56;34.00;67.40
23435;DHT22;11890;45.380;11.028;2022-08-01T11:54:40;34.00;67.10
23435;DHT22;11890;45.380;11.028;2022-08-01T11:57:28;34.20;68.10
23435;DHT22;11890;45.380;11.028;2022-08-01T12:00:12;34.20;67.10
23435;DHT22;11890;45.380;11.028;2022-08-01T12:02:45;34.20;64.10
23435;DHT22;11890;45.380;11.028;2022-08-01T12:05:16;34.20;64.30
23435;DHT22;11890;45.380;11.028;2022-08-01T12:07:49;34.20;65.80
23435;DHT22;11890;45.380;11.028;2022-08-01T12:10:19;34.10;66.40
23435;DHT22;11890;45.380;11.028;2022-08-01T12:15:18;34.10;67.50
23435;DHT22;11890;45.380;11.028;2022-08-01T12:17:57;34.10;67.60
23435;DHT22;11890;45.380;11.028;2022-08-01T12:20:31;34.20;66.10
23435;DHT22;11890;45.380;11.028;2022-08-01T12:23:00;34.20;66.60
23435;DHT22;11890;45.380;11.028;2022-08-01T12:25:28;34.20;68.00
23435;DHT22;11890;45.380;11.028;2022-08-01T12:28:08;34.20;65.60
23435;DHT22;11890;45.380;11.028;2022-08-01T12:30:37;34.30;66.70
23435;DHT22;11890;45.380;11.028;2022-08-01T12:33:08;34.40;67.70
23435;DHT22;11890;45.380;11.028;2022-08-01T12:35:38;34.40;67.40
23435;DHT22;11890;45.380;11.028;2022-08-01T12:38:14;34.50;69.40
23435;DHT22;11890;45.380;11.028;2022-08-01T12:40:44;34.50;66.20
23435;DHT22;11890;45.380;11.028;2022-08-01T12:43:19;34.60;66.50
23435;DHT22;11890;45.380;11.028;2022-08-01T12:46:00;34.60;66.20
23435;DHT22;11890;45.380;11.028;2022-08-01T12:48:29;34.60;64.40
23435;DHT22;11890;45.380;11.028;2022-08-01T12:50:59;34.70;63.80
23435;DHT22;11890;45.380;11.028;2022-08-01T12:53:28;34.80;64.80
23435;DHT22;11890;45.380;11.028;2022-08-01T12:56:08;34.80;66.90
23435;DHT22;11890;45.380;11.028;2022-08-01T12:58:38;34.80;64.60
23435;DHT22;11890;45.380;11.028;2022-08-01T13:01:10;34.80;63.80
23435;DHT22;11890;45.380;11.028;2022-08-01T13:03:39;34.80;65.00
23435;DHT22;11890;45.380;11.028;2022-08-01T13:06:11;34.80;64.90
23435;DHT22;11890;45.380;11.028;2022-08-01T13:08:42;34.70;62.20
23435;DHT22;11890;45.380;11.028;2022-08-01T13:11:12;34.70;62.70
23435;DHT22;11890;45.380;11.028;2022-08-01T13:13:47;34.60;65.30
23435;DHT22;11890;45.380;11.028;2022-08-01T13:16:19;34.60;62.20
23435;DHT22;11890;45.380;11.028;2022-08-01T13:19:07;34.60;63.60
23435;DHT22;11890;45.380;11.028;2022-08-01T13:21:35;34.60;63.90
23435;DHT22;11890;45.380;11.028;2022-08-01T13:24:28;34.60;61.60
23435;DHT22;11890;45.380;11.028;2022-08-01T13:26:58;34.60;61.30
23435;DHT22;11890;45.380;11.028;2022-08-01T13:29:37;34.60;59.60
23435;DHT22;11890;45.380;11.028;2022-08-01T13:32:19;34.60;60.70
23435;DHT22;11890;45.380;11.028;2022-08-01T13:35:06;34.60;61.90
23435;DHT22;11890;45.380;11.028;2022-08-01T13:37:35;34.60;62.10
23435;DHT22;11890;45.380;11.028;2022-08-01T13:40:06;34.60;62.40
23435;DHT22;11890;45.380;11.028;2022-08-01T13:42:34;34.70;63.90
23435;DHT22;11890;45.380;11.028;2022-08-01T13:45:03;34.70;61.60
23435;DHT22;11890;45.380;11.028;2022-08-01T13:47:44;34.70;60.50
23435;DHT22;11890;45.380;11.028;2022-08-01T13:50:31;34.70;61.10
23435;DHT22;11890;45.380;11.028;2022-08-01T13:52:59;34.70;62.20
23435;DHT22;11890;45.380;11.028;2022-08-01T13:55:27;34.70;62.40
23435;DHT22;11890;45.380;11.028;2022-08-01T13:58:01;34.80;62.40
23435;DHT22;11890;45.380;11.028;2022-08-01T14:00:30;34.70;62.60
23435;DHT22;11890;45.380;11.028;2022-08-01T14:02:57;34.70;63.20
23435;DHT22;11890;45.380;11.028;2022-08-01T14:05:24;34.70;63.20
23435;DHT22;11890;45.380;11.028;2022-08-01T14:07:52;34.70;62.80
23435;DHT22;11890;45.380;11.028;2022-08-01T14:10:23;34.60;63.50
23435;DHT22;11890;45.380;11.028;2022-08-01T14:12:51;34.60;63.50
23435;DHT22;11890;45.380;11.028;2022-08-01T14:15:23;34.60;62.70
23435;DHT22;11890;45.380;11.028;2022-08-01T14:18:08;34.60;61.10
23435;DHT22;11890;45.380;11.028;2022-08-01T14:20:39;34.50;60.70
23435;DHT22;11890;45.380;11.028;2022-08-01T14:23:07;34.50;60.40
23435;DHT22;11890;45.380;11.028;2022-08-01T14:25:39;34.60;60.90
23435;DHT22;11890;45.380;11.028;2022-08-01T14:28:27;34.50;61.90
23435;DHT22;11890;45.380;11.028;2022-08-01T14:30:59;34.60;61.00
23435;DHT22;11890;45.380;11.028;2022-08-01T14:33:27;34.70;61.10
23435;DHT22;11890;45.380;11.028;2022-08-01T14:35:55;34.70;62.10
23435;DHT22;11890;45.380;11.028;2022-08-01T14:38:42;34.70;60.80
23435;DHT22;11890;45.380;11.028;2022-08-01T14:41:13;34.60;59.30
23435;DHT22;11890;45.380;11.028;2022-08-01T14:43:41;34.60;59.90
23435;DHT22;11890;45.380;11.028;2022-08-01T14:46:09;34.60;60.40
23435;DHT22;11890;45.380;11.028;2022-08-01T14:48:37;34.60;59.80
23435;DHT22;11890;45.380;11.028;2022-08-01T14:51:04;34.60;58.90
23435;DHT22;11890;45.380;11.028;2022-08-01T14:53:34;34.50;59.20
23435;DHT22;11890;45.380;11.028;2022-08-01T14:56:03;34.50;59.50
23435;DHT22;11890;45.380;11.028;2022-08-01T14:58:31;34.50;58.90
23435;DHT22;11890;45.380;11.028;2022-08-01T15:00:58;34.50;59.30
23435;DHT22;11890;45.380;11.028;2022-08-01T15:03:26;34.50;59.50
23435;DHT22;11890;45.380;11.028;2022-08-01T15:05:53;34.50;58.40
23435;DHT22;11890;45.380;11.028;2022-08-01T15:08:21;34.50;56.70
23435;DHT22;11890;45.380;11.028;2022-08-01T15:10:48;34.50;57.20
23435;DHT22;11890;45.380;11.028;2022-08-01T15:13:16;34.40;57.30
23435;DHT22;11890;45.380;11.028;2022-08-01T15:15:43;34.40;57.90
23435;DHT22;11890;45.380;11.028;2022-08-01T15:18:11;34.40;58.80
23435;DHT22;11890;45.380;11.028;2022-08-01T15:20:38;34.40;58.10
23435;DHT22;11890;45.380;11.028;2022-08-01T15:23:06;34.40;56.60
23435;DHT22;11890;45.380;11.028;2022-08-01T15:25:33;34.40;55.10
23435;DHT22;11890;45.380;11.028;2022-08-01T15:28:09;34.40;57.10
23435;DHT22;11890;45.380;11.028;2022-08-01T15:30:37;34.30;57.20
23435;DHT22;11890;45.380;11.028;2022-08-01T15:33:05;34.30;55.60
23435;DHT22;11890;45.380;11.028;2022-08-01T15:35:33;34.30;54.50
23435;DHT22;11890;45.380;11.028;2022-08-01T15:38:00;34.20;55.50
23435;DHT22;11890;45.380;11.028;2022-08-01T15:40:27;34.30;57.00
23435;DHT22;11890;45.380;11.028;2022-08-01T15:42:55;34.30;58.10
23435;DHT22;11890;45.380;11.028;2022-08-01T15:45:23;34.30;56.80
23435;DHT22;11890;45.380;11.028;2022-08-01T15:48:10;34.30;56.10
23435;DHT22;11890;45.380;11.028;2022-08-01T15:50:38;34.30;55.30
23435;DHT22;11890;45.380;11.028;2022-08-01T15:53:05;34.30;55.90
23435;DHT22;11890;45.380;11.028;2022-08-01T15:55:37;34.20;56.40
23435;DHT22;11890;45.380;11.028;2022-08-01T15:58:06;34.20;56.20
23435;DHT22;11890;45.380;11.028;2022-08-01T16:00:35;34.20;55.70
23435;DHT22;11890;45.380;11.028;2022-08-01T16:03:08;34.20;55.90
23435;DHT22;11890;45.380;11.028;2022-08-01T16:05:36;34.20;57.60
23435;DHT22;11890;45.380;11.028;2022-08-01T16:08:11;34.20;57.20
23435;DHT22;11890;45.380;11.028;2022-08-01T16:10:39;34.10;57.80
23435;DHT22;11890;45.380;11.028;2022-08-01T16:13:06;34.10;57.10
23435;DHT22;11890;45.380;11.028;2022-08-01T16:15:35;34.10;57.80
23435;DHT22;11890;45.380;11.028;2022-08-01T16:18:08;34.10;58.20
23435;DHT22;11890;45.380;11.028;2022-08-01T16:20:36;34.10;57.00
23435;DHT22;11890;45.380;11.028;2022-08-01T16:23:12;34.10;57.70
23435;DHT22;11890;45.380;11.028;2022-08-01T16:25:39;34.10;57.40
23435;DHT22;11890;45.380;11.028;2022-08-01T16:28:07;34.10;57.40
23435;DHT22;11890;45.380;11.028;2022-08-01T16:30:36;34.10;57.60
23435;DHT22;11890;45.380;11.028;2022-08-01T16:33:25;34.00;58.20